sensor_id;sensor_type;location;lat;lon;timestamp;pressure;altitude;pressure_sealevel;temperature;humidity
2785;BME280;57944;48.722;9.316;2023-07-24T00:00:17;97427.81;;;19.40;95.75
2785;BME280;57944;48.722;9.316;2023-07-24T00:02:48;97443.56;;;19.49;99.76
2785;BME280;57944;48.722;9.316;2023-07-24T00:05:18;97430.69;;;19.39;100.00
2785;BME280;57944;48.722;9.316;2023-07-24T00:07:48;97413.31;;;19.50;100.00
2785;BME280;57944;48.722;9.316;2023-07-24T00:10:21;97416.41;;;19.57;100.00
2785;BME280;57944;48.722;9.316;2023-07-24T00:12:51;97406.06;;;19.57;100.00
2785;BME280;57944;48.722;9.316;2023-07-24T00:15:22;97391.34;;;19.68;100.00
2785;BME280;57944;48.722;9.316;2023-07-24T00:17:52;97405.78;;;19.63;100.00
2785;BME280;57944;48.722;9.316;2023-07-24T00:20:23;97411.00;;;19.48;100.00
2785;BME280;57944;48.722;9.316;2023-07-24T00:22:54;97398.84;;;19.49;100.00
2785;BME280;57944;48.722;9.316;2023-07-24T00:25:27;97390.03;;;19.55;100.00
2785;BME280;57944;48.722;9.316;2023-07-24T00:27:57;97394.69;;;19.53;100.00
2785;BME280;57944;48.722;9.316;2023-07-24T00:30:28;97413.38;;;19.24;100.00
2785;BME280;57944;48.722;9.316;2023-07-24T00:32:58;97407.69;;;19.27;98.69
2785;BME280;57944;48.722;9.316;2023-07-24T00:35:28;97385.94;;;19.43;99.54
2785;BME280;57944;48.722;9.316;2023-07-24T00:37:59;97388.06;;;19.36;100.00
2785;BME280;57944;48.722;9.316;2023-07-24T00:40:32;97393.75;;;19.28;100.00
2785;BME280;57944;48.722;9.316;2023-07-24T00:43:02;97395.81;;;19.21;100.00
2785;BME280;57944;48.722;9.316;2023-07-24T00:45:33;97398.44;;;19.06;100.00
2785;BME280;57944;48.722;9.316;2023-07-24T00:48:04;97379.31;;;19.12;100.00
2785;BME280;57944;48.722;9.316;2023-07-24T00:50:38;97383.44;;;19.18;100.00
2785;BME280;57944;48.722;9.316;2023-07-24T00:53:10;97380.88;;;19.03;100.00
2785;BME280;57944;48.722;9.316;2023-07-24T00:55:45;97367.94;;;19.08;100.00
2785;BME280;57944;48.722;9.316;2023-07-24T00:58:17;97375.13;;;19.36;100.00
2785;BME280;57944;48.722;9.316;2023-07-24T01:00:50;97376.19;;;19.25;100.00
2785;BME280;57944;48.722;9.316;2023-07-24T01:03:22;97364.28;;;19.29;100.00
2785;BME280;57944;48.722;9.316;2023-07-24T01:05:55;97361.47;;;19.26;100.00
2785;BME280;57944;48.722;9.316;2023-07-24T01:08:26;97350.38;;;19.20;100.00
2785;BME280;57944;48.722;9.316;2023-07-24T01:11:10;97347.56;;;19.11;100.00
2785;BME280;57944;48.722;9.316;2023-07-24T01:13:48;97343.72;;;18.88;100.00
2785;BME280;57944;48.722;9.316;2023-07-24T01:16:26;97334.94;;;18.74;100.00
2785;BME280;57944;48.722;9.316;2023-07-24T01:19:01;97331.84;;;18.46;100.00
2785;BME280;57944;48.722;9.316;2023-07-24T01:21:44;97321.53;;;18.36;100.00
2785;BME280;57944;48.722;9.316;2023-07-24T01:24:33;97323.06;;;18.17;100.00
2785;BME280;57944;48.722;9.316;2023-07-24T01:27:10;97325.59;;;17.96;100.00
2785;BME280;57944;48.722;9.316;2023-07-24T01:29:40;97331.22;;;17.78;100.00
2785;BME280;57944;48.722;9.316;2023-07-24T01:32:10;97327.13;;;17.82;100.00
2785;BME280;57944;48.722;9.316;2023-07-24T01:34:41;97326.63;;;17.85;100.00
2785;BME280;57944;48.722;9.316;2023-07-24T01:37:13;97319.34;;;17.72;100.00
2785;BME280;57944;48.722;9.316;2023-07-24T01:39:45;97322.13;;;17.60;100.00
2785;BME280;57944;48.722;9.316;2023-07-24T01:42:18;97334.72;;;17.46;100.00
2785;BME280;57944;48.722;9.316;2023-07-24T01:44:51;97336.75;;;17.39;100.00
2785;BME280;57944;48.722;9.316;2023-07-24T01:47:22;97332.84;;;17.31;100.00
2785;BME280;57944;48.722;9.316;2023-07-24T01:49:53;97342.88;;;17.28;100.00
2785;BME280;57944;48.722;9.316;2023-07-24T01:52:23;97344.66;;;17.27;100.00
2785;BME280;57944;48.722;9.316;2023-07-24T01:54:53;97349.56;;;17.24;100.00
2785;BME280;57944;48.722;9.316;2023-07-24T01:57:26;97346.59;;;17.47;100.00
2785;BME280;57944;48.722;9.316;2023-07-24T01:59:57;97344.50;;;17.44;100.00
2785;BME280;57944;48.722;9.316;2023-07-24T02:02:27;97337.56;;;17.45;100.00
2785;BME280;57944;48.722;9.316;2023-07-24T02:04:57;97332.13;;;17.36;100.00
2785;BME280;57944;48.722;9.316;2023-07-24T02:07:28;97333.88;;;17.35;100.00
2785;BME280;57944;48.722;9.316;2023-07-24T02:09:58;97326.97;;;17.36;100.00
2785;BME280;57944;48.722;9.316;2023-07-24T02:12:31;97314.59;;;17.33;100.00
2785;BME280;57944;48.722;9.316;2023-07-24T02:15:02;97310.94;;;17.29;100.00
2785;BME280;57944;48.722;9.316;2023-07-24T02:17:32;97312.75;;;17.28;100.00
2785;BME280;57944;48.722;9.316;2023-07-24T02:20:04;97306.31;;;17.31;100.00
2785;BME280;57944;48.722;9.316;2023-07-24T02:22:35;97305.25;;;17.16;100.00
2785;BME280;57944;48.722;9.316;2023-07-24T02:25:07;97302.13;;;17.14;100.00
2785;BME280;57944;48.722;9.316;2023-07-24T02:27:40;97297.22;;;17.08;100.00
2785;BME280;57944;48.722;9.316;2023-07-24T02:30:11;97295.81;;;16.90;100.00
2785;BME280;57944;48.722;9.316;2023-07-24T02:32:42;97306.19;;;17.00;100.00
2785;BME280;57944;48.722;9.316;2023-07-24T02:35:12;97311.09;;;17.07;100.00
2785;BME280;57944;48.722;9.316;2023-07-24T02:37:44;97307.25;;;17.09;100.00
2785;BME280;57944;48.722;9.316;2023-07-24T02:40:15;97294.88;;;17.06;100.00
2785;BME280;57944;48.722;9.316;2023-07-24T02:42:49;97294.38;;;17.09;100.00
2785;BME280;57944;48.722;9.316;2023-07-24T02:45:19;97285.03;;;16.93;100.00
2785;BME280;57944;48.722;9.316;2023-07-24T02:47:50;97284.50;;;16.91;100.00
2785;BME280;57944;48.722;9.316;2023-07-24T02:50:20;97280.34;;;16.85;100.00
2785;BME280;57944;48.722;9.316;2023-07-24T02:52:50;97281.19;;;16.58;100.00
2785;BME280;57944;48.722;9.316;2023-07-24T02:55:21;97266.75;;;16.52;100.00
2785;BME280;57944;48.722;9.316;2023-07-24T02:57:54;97259.06;;;16.57;100.00
2785;BME280;57944;48.722;9.316;2023-07-24T03:00:24;97258.78;;;16.53;100.00
2785;BME280;57944;48.722;9.316;2023-07-24T03:02:54;97254.97;;;16.61;100.00
2785;BME280;57944;48.722;9.316;2023-07-24T03:05:25;97250.34;;;16.58;100.00
2785;BME280;57944;48.722;9.316;2023-07-24T03:07:55;97247.75;;;16.58;100.00
2785;BME280;57944;48.722;9.316;2023-07-24T03:10:26;97249.84;;;16.61;100.00
2785;BME280;57944;48.722;9.316;2023-07-24T03:12:59;97245.69;;;16.60;100.00
2785;BME280;57944;48.722;9.316;2023-07-24T03:15:29;97257.75;;;16.54;100.00
2785;BME280;57944;48.722;9.316;2023-07-24T03:18:00;97257.22;;;16.47;100.00
2785;BME280;57944;48.722;9.316;2023-07-24T03:20:30;97250.78;;;16.50;100.00
2785;BME280;57944;48.722;9.316;2023-07-24T03:23:01;97249.22;;;16.49;100.00
2785;BME280;57944;48.722;9.316;2023-07-24T03:25:31;97256.44;;;16.47;100.00
2785;BME280;57944;48.722;9.316;2023-07-24T03:28:05;97251.28;;;16.47;100.00
2785;BME280;57944;48.722;9.316;2023-07-24T03:30:36;97249.91;;;16.34;100.00
2785;BME280;57944;48.722;9.316;2023-07-24T03:33:06;97259.34;;;16.23;100.00
2785;BME280;57944;48.722;9.316;2023-07-24T03:35:36;97248.59;;;16.31;100.00
2785;BME280;57944;48.722;9.316;2023-07-24T03:38:07;97246.53;;;16.28;100.00
2785;BME280;57944;48.722;9.316;2023-07-24T03:40:37;97239.31;;;16.25;100.00
2785;BME280;57944;48.722;9.316;2023-07-24T03:43:10;97238.22;;;16.21;100.00
2785;BME280;57944;48.722;9.316;2023-07-24T03:45:40;97246.56;;;16.34;100.00
2785;BME280;57944;48.722;9.316;2023-07-24T03:48:11;97247.34;;;16.34;100.00
2785;BME280;57944;48.722;9.316;2023-07-24T03:50:41;97236.59;;;16.42;100.00
2785;BME280;57944;48.722;9.316;2023-07-24T03:53:11;97263.63;;;16.45;100.00
2785;BME280;57944;48.722;9.316;2023-07-24T03:55:42;97253.94;;;16.62;100.00
2785;BME280;57944;48.722;9.316;2023-07-24T03:58:15;97247.59;;;16.75;100.00
2785;BME280;57944;48.722;9.316;2023-07-24T04:00:46;97245.91;;;16.96;100.00
2785;BME280;57944;48.722;9.316;2023-07-24T04:03:16;97253.94;;;17.00;100.00
2785;BME280;57944;48.722;9.316;2023-07-24T04:05:47;97257.88;;;17.23;100.00
2785;BME280;57944;48.722;9.316;2023-07-24T04:08:17;97251.47;;;17.35;100.00
2785;BME280;57944;48.722;9.316;2023-07-24T04:10:47;97249.19;;;17.44;100.00
2785;BME280;57944;48.722;9.316;2023-07-24T04:13:20;97251.28;;;17.62;100.00
2785;BME280;57944;48.722;9.316;2023-07-24T04:15:51;97253.09;;;17.77;100.00
2785;BME280;57944;48.722;9.316;2023-07-24T04:18:21;97236.41;;;17.90;100.00
2785;BME280;57944;48.722;9.316;2023-07-24T04:20:51;97228.94;;;17.99;100.00
2785;BME280;57944;48.722;9.316;2023-07-24T04:23:21;97234.88;;;18.09;100.00
2785;BME280;57944;48.722;9.316;2023-07-24T04:25:52;97232.28;;;18.20;100.00
2785;BME280;57944;48.722;9.316;2023-07-24T04:28:25;97232.25;;;18.45;100.00
2785;BME280;57944;48.722;9.316;2023-07-24T04:30:55;97216.72;;;18.61;100.00
2785;BME280;57944;48.722;9.316;2023-07-24T04:33:29;97210.25;;;18.68;100.00
2785;BME280;57944;48.722;9.316;2023-07-24T04:36:00;97198.88;;;18.85;100.00
2785;BME280;57944;48.722;9.316;2023-07-24T04:38:30;97193.66;;;19.00;100.00
2785;BME280;57944;48.722;9.316;2023-07-24T04:41:00;97196.16;;;19.15;100.00
2785;BME280;57944;48.722;9.316;2023-07-24T04:43:34;97194.78;;;19.33;100.00
2785;BME280;57944;48.722;9.316;2023-07-24T04:46:04;97191.41;;;19.33;100.00
2785;BME280;57944;48.722;9.316;2023-07-24T04:48:34;97190.44;;;19.68;100.00
2785;BME280;57944;48.722;9.316;2023-07-24T04:51:05;97197.97;;;19.99;100.00
2785;BME280;57944;48.722;9.316;2023-07-24T04:53:35;97211.78;;;20.18;100.00
2785;BME280;57944;48.722;9.316;2023-07-24T04:56:05;97203.94;;;20.28;100.00
2785;BME280;57944;48.722;9.316;2023-07-24T04:58:38;97204.16;;;20.32;100.00
2785;BME280;57944;48.722;9.316;2023-07-24T05:01:09;97197.16;;;20.33;100.00
2785;BME280;57944;48.722;9.316;2023-07-24T05:03:39;97195.31;;;20.33;100.00
2785;BME280;57944;48.722;9.316;2023-07-24T05:06:09;97192.13;;;20.41;99.84
2785;BME280;57944;48.722;9.316;2023-07-24T05:08:39;97195.44;;;20.47;100.00
2785;BME280;57944;48.722;9.316;2023-07-24T05:11:10;97199.44;;;20.63;99.10
2785;BME280;57944;48.722;9.316;2023-07-24T05:13:42;97205.75;;;20.81;97.92
2785;BME280;57944;48.722;9.316;2023-07-24T05:16:13;97213.97;;;21.07;96.83
2785;BME280;57944;48.722;9.316;2023-07-24T05:18:43;97203.38;;;21.23;93.88
2785;BME280;57944;48.722;9.316;2023-07-24T05:21:13;97199.25;;;21.22;93.94
2785;BME280;57944;48.722;9.316;2023-07-24T05:23:44;97206.63;;;21.33;92.65
2785;BME280;57944;48.722;9.316;2023-07-24T05:26:14;97218.31;;;21.31;92.44
2785;BME280;57944;48.722;9.316;2023-07-24T05:28:47;97211.00;;;21.38;92.59
2785;BME280;57944;48.722;9.316;2023-07-24T05:31:17;97209.25;;;21.52;91.64
2785;BME280;57944;48.722;9.316;2023-07-24T05:33:47;97212.66;;;21.67;90.95
2785;BME280;57944;48.722;9.316;2023-07-24T05:36:18;97213.00;;;21.79;89.48
2785;BME280;57944;48.722;9.316;2023-07-24T05:38:52;97220.53;;;21.94;88.75
2785;BME280;57944;48.722;9.316;2023-07-24T05:41:23;97228.06;;;21.96;88.18
2785;BME280;57944;48.722;9.316;2023-07-24T05:43:56;97234.03;;;22.10;86.84
2785;BME280;57944;48.722;9.316;2023-07-24T05:46:27;97238.47;;;22.09;85.09
2785;BME280;57944;48.722;9.316;2023-07-24T05:48:57;97237.97;;;22.07;85.84
2785;BME280;57944;48.722;9.316;2023-07-24T05:51:29;97244.47;;;21.91;86.33
2785;BME280;57944;48.722;9.316;2023-07-24T05:53:59;97247.84;;;21.73;88.04
2785;BME280;57944;48.722;9.316;2023-07-24T05:56:29;97259.06;;;21.49;89.99
2785;BME280;57944;48.722;9.316;2023-07-24T05:59:02;97265.97;;;21.35;90.72
2785;BME280;57944;48.722;9.316;2023-07-24T06:01:32;97271.28;;;21.25;92.21
2785;BME280;57944;48.722;9.316;2023-07-24T06:04:03;97272.38;;;21.18;92.29
2785;BME280;57944;48.722;9.316;2023-07-24T06:06:34;97267.72;;;21.20;91.22
2785;BME280;57944;48.722;9.316;2023-07-24T06:09:05;97263.84;;;21.18;90.92
2785;BME280;57944;48.722;9.316;2023-07-24T06:11:35;97267.91;;;21.24;92.48
2785;BME280;57944;48.722;9.316;2023-07-24T06:14:08;97261.47;;;21.22;96.61
2785;BME280;57944;48.722;9.316;2023-07-24T06:16:38;97266.44;;;21.18;99.19
2785;BME280;57944;48.722;9.316;2023-07-24T06:19:09;97264.31;;;21.20;98.47
2785;BME280;57944;48.722;9.316;2023-07-24T06:21:39;97266.28;;;21.28;99.79
2785;BME280;57944;48.722;9.316;2023-07-24T06:24:09;97270.72;;;21.28;97.14
2785;BME280;57944;48.722;9.316;2023-07-24T06:26:40;97253.56;;;21.32;95.40
2785;BME280;57944;48.722;9.316;2023-07-24T06:29:13;97242.03;;;21.43;94.43
2785;BME280;57944;48.722;9.316;2023-07-24T06:31:44;97243.66;;;21.34;93.94
2785;BME280;57944;48.722;9.316;2023-07-24T06:34:14;97230.31;;;21.27;94.50
2785;BME280;57944;48.722;9.316;2023-07-24T06:36:44;97221.19;;;21.29;95.74
2785;BME280;57944;48.722;9.316;2023-07-24T06:39:15;97220.72;;;21.03;100.00
2785;BME280;57944;48.722;9.316;2023-07-24T06:41:45;97218.94;;;21.04;100.00
2785;BME280;57944;48.722;9.316;2023-07-24T06:44:18;97206.47;;;21.25;100.00
2785;BME280;57944;48.722;9.316;2023-07-24T06:46:48;97214.56;;;21.42;98.82
2785;BME280;57944;48.722;9.316;2023-07-24T06:49:19;97211.75;;;21.57;96.94
2785;BME280;57944;48.722;9.316;2023-07-24T06:51:49;97207.72;;;21.51;97.13
2785;BME280;57944;48.722;9.316;2023-07-24T06:54:19;97210.63;;;21.63;95.87
2785;BME280;57944;48.722;9.316;2023-07-24T06:56:49;97214.97;;;21.87;93.06
2785;BME280;57944;48.722;9.316;2023-07-24T06:59:23;97215.88;;;22.10;93.66
2785;BME280;57944;48.722;9.316;2023-07-24T07:01:53;97215.06;;;22.28;92.63
2785;BME280;57944;48.722;9.316;2023-07-24T07:04:23;97215.75;;;22.48;91.21
2785;BME280;57944;48.722;9.316;2023-07-24T07:06:54;97220.97;;;22.62;86.96
2785;BME280;57944;48.722;9.316;2023-07-24T07:09:24;97209.91;;;22.56;85.31
2785;BME280;57944;48.722;9.316;2023-07-24T07:11:54;97199.72;;;22.60;83.47
2785;BME280;57944;48.722;9.316;2023-07-24T07:14:27;97207.41;;;22.65;83.63
2785;BME280;57944;48.722;9.316;2023-07-24T07:16:58;97223.38;;;22.72;82.27
2785;BME280;57944;48.722;9.316;2023-07-24T07:19:28;97231.84;;;22.91;79.51
2785;BME280;57944;48.722;9.316;2023-07-24T07:21:58;97230.88;;;23.01;78.83
2785;BME280;57944;48.722;9.316;2023-07-24T07:24:29;97237.06;;;23.05;78.87
2785;BME280;57944;48.722;9.316;2023-07-24T07:26:59;97244.06;;;23.18;78.52
2785;BME280;57944;48.722;9.316;2023-07-24T07:29:32;97248.75;;;23.30;77.97
2785;BME280;57944;48.722;9.316;2023-07-24T07:32:03;97257.16;;;23.27;76.78
2785;BME280;57944;48.722;9.316;2023-07-24T07:34:33;97266.06;;;23.49;76.63
2785;BME280;57944;48.722;9.316;2023-07-24T07:37:06;97260.38;;;23.83;73.94
2785;BME280;57944;48.722;9.316;2023-07-24T07:39:36;97258.66;;;24.01;72.98
2785;BME280;57944;48.722;9.316;2023-07-24T07:42:06;97273.00;;;24.21;70.84
2785;BME280;57944;48.722;9.316;2023-07-24T07:44:47;97267.59;;;24.40;70.93
2785;BME280;57944;48.722;9.316;2023-07-24T07:47:18;97276.00;;;24.59;69.62
2785;BME280;57944;48.722;9.316;2023-07-24T07:49:48;97282.69;;;24.51;70.17
2785;BME280;57944;48.722;9.316;2023-07-24T07:52:18;97281.97;;;24.60;69.57
2785;BME280;57944;48.722;9.316;2023-07-24T07:54:49;97284.75;;;25.03;67.65
2785;BME280;57944;48.722;9.316;2023-07-24T07:57:20;97277.34;;;25.45;64.28
2785;BME280;57944;48.722;9.316;2023-07-24T07:59:53;97284.88;;;25.73;62.04
2785;BME280;57944;48.722;9.316;2023-07-24T08:02:23;97295.16;;;25.78;61.67
2785;BME280;57944;48.722;9.316;2023-07-24T08:04:53;97295.47;;;25.59;62.88
2785;BME280;57944;48.722;9.316;2023-07-24T08:07:31;97298.66;;;25.30;65.71
2785;BME280;57944;48.722;9.316;2023-07-24T08:10:02;97304.31;;;25.23;67.46
2785;BME280;57944;48.722;9.316;2023-07-24T08:12:33;97307.59;;;24.97;68.66
2785;BME280;57944;48.722;9.316;2023-07-24T08:15:09;97300.59;;;24.75;71.80
2785;BME280;57944;48.722;9.316;2023-07-24T08:17:39;97291.66;;;24.37;78.36
2785;BME280;57944;48.722;9.316;2023-07-24T08:20:10;97286.78;;;23.76;85.79
2785;BME280;57944;48.722;9.316;2023-07-24T08:22:41;97278.41;;;23.43;90.50
2785;BME280;57944;48.722;9.316;2023-07-24T08:25:11;97276.50;;;22.93;100.00
2785;BME280;57944;48.722;9.316;2023-07-24T08:27:42;97279.31;;;21.66;100.00
2785;BME280;57944;48.722;9.316;2023-07-24T08:30:34;97277.09;;;20.92;100.00
2785;BME280;57944;48.722;9.316;2023-07-24T08:33:05;97263.00;;;20.50;100.00
2785;BME280;57944;48.722;9.316;2023-07-24T08:35:35;97271.44;;;20.32;100.00
2785;BME280;57944;48.722;9.316;2023-07-24T08:38:05;97259.69;;;19.76;100.00
2785;BME280;57944;48.722;9.316;2023-07-24T08:40:35;97265.47;;;19.53;100.00
2785;BME280;57944;48.722;9.316;2023-07-24T08:43:06;97255.09;;;19.58;100.00
2785;BME280;57944;48.722;9.316;2023-07-24T08:45:39;97235.97;;;19.64;100.00
2785;BME280;57944;48.722;9.316;2023-07-24T08:48:10;97241.69;;;19.56;100.00
2785;BME280;57944;48.722;9.316;2023-07-24T08:50:41;97231.28;;;19.71;100.00
2785;BME280;57944;48.722;9.316;2023-07-24T08:53:13;97235.09;;;19.79;100.00
2785;BME280;57944;48.722;9.316;2023-07-24T08:55:48;97218.81;;;19.78;100.00
2785;BME280;57944;48.722;9.316;2023-07-24T08:58:18;97203.25;;;19.83;100.00
2785;BME280;57944;48.722;9.316;2023-07-24T09:00:51;97200.88;;;19.92;100.00
2785;BME280;57944;48.722;9.316;2023-07-24T09:03:22;97196.75;;;20.20;100.00
2785;BME280;57944;48.722;9.316;2023-07-24T09:05:52;97210.09;;;20.33;100.00
2785;BME280;57944;48.722;9.316;2023-07-24T09:08:30;97207.25;;;20.58;100.00
2785;BME280;57944;48.722;9.316;2023-07-24T09:11:03;97201.31;;;20.82;100.00
2785;BME280;57944;48.722;9.316;2023-07-24T09:13:35;97215.75;;;20.88;100.00
2785;BME280;57944;48.722;9.316;2023-07-24T09:16:09;97207.81;;;20.79;100.00
2785;BME280;57944;48.722;9.316;2023-07-24T09:18:40;97208.75;;;20.88;100.00
2785;BME280;57944;48.722;9.316;2023-07-24T09:21:11;97192.69;;;21.10;100.00
2785;BME280;57944;48.722;9.316;2023-07-24T09:23:41;97188.56;;;21.47;100.00
2785;BME280;57944;48.722;9.316;2023-07-24T09:26:11;97195.16;;;21.91;100.00
2785;BME280;57944;48.722;9.316;2023-07-24T09:28:52;97190.09;;;22.46;100.00
2785;BME280;57944;48.722;9.316;2023-07-24T09:31:35;97190.75;;;22.93;100.00
2785;BME280;57944;48.722;9.316;2023-07-24T09:34:15;97185.63;;;23.16;100.00
2785;BME280;57944;48.722;9.316;2023-07-24T09:36:46;97192.00;;;23.46;100.00
2785;BME280;57944;48.722;9.316;2023-07-24T09:39:23;97191.09;;;23.51;100.00
2785;BME280;57944;48.722;9.316;2023-07-24T09:42:03;97187.78;;;23.59;100.00
2785;BME280;57944;48.722;9.316;2023-07-24T09:44:34;97187.03;;;23.58;100.00
2785;BME280;57944;48.722;9.316;2023-07-24T09:47:07;97184.06;;;23.51;100.00
2785;BME280;57944;48.722;9.316;2023-07-24T09:49:59;97180.94;;;23.40;100.00
2785;BME280;57944;48.722;9.316;2023-07-24T09:52:31;97187.13;;;23.31;100.00
2785;BME280;57944;48.722;9.316;2023-07-24T09:55:13;97204.50;;;23.22;100.00
2785;BME280;57944;48.722;9.316;2023-07-24T09:57:46;97210.28;;;23.05;100.00
2785;BME280;57944;48.722;9.316;2023-07-24T10:00:18;97221.44;;;22.91;100.00
2785;BME280;57944;48.722;9.316;2023-07-24T10:02:51;97226.56;;;22.69;100.00
2785;BME280;57944;48.722;9.316;2023-07-24T10:05:22;97240.47;;;22.45;100.00
2785;BME280;57944;48.722;9.316;2023-07-24T10:07:53;97254.09;;;22.23;100.00
2785;BME280;57944;48.722;9.316;2023-07-24T10:10:24;97256.78;;;21.99;100.00
2785;BME280;57944;48.722;9.316;2023-07-24T10:12:58;97268.69;;;21.68;100.00
2785;BME280;57944;48.722;9.316;2023-07-24T10:15:29;97275.47;;;21.20;100.00
2785;BME280;57944;48.722;9.316;2023-07-24T10:18:08;97287.78;;;20.86;100.00
2785;BME280;57944;48.722;9.316;2023-07-24T10:20:41;97277.47;;;20.51;100.00
2785;BME280;57944;48.722;9.316;2023-07-24T10:23:17;97273.09;;;20.47;100.00
2785;BME280;57944;48.722;9.316;2023-07-24T10:25:51;97282.00;;;20.36;100.00
2785;BME280;57944;48.722;9.316;2023-07-24T10:28:31;97274.38;;;20.20;100.00
2785;BME280;57944;48.722;9.316;2023-07-24T10:31:21;97285.09;;;20.03;100.00
2785;BME280;57944;48.722;9.316;2023-07-24T10:34:05;97288.84;;;19.87;100.00
2785;BME280;57944;48.722;9.316;2023-07-24T10:36:36;97289.56;;;19.93;100.00
2785;BME280;57944;48.722;9.316;2023-07-24T10:39:14;97291.59;;;20.01;100.00
2785;BME280;57944;48.722;9.316;2023-07-24T10:41:46;97315.91;;;20.00;100.00
2785;BME280;57944;48.722;9.316;2023-07-24T10:44:16;97319.00;;;20.02;100.00
2785;BME280;57944;48.722;9.316;2023-07-24T10:46:46;97328.81;;;20.05;100.00
2785;BME280;57944;48.722;9.316;2023-07-24T10:49:22;97331.66;;;20.03;100.00
2785;BME280;57944;48.722;9.316;2023-07-24T10:51:56;97336.09;;;19.98;100.00
2785;BME280;57944;48.722;9.316;2023-07-24T10:54:26;97341.34;;;19.82;100.00
2785;BME280;57944;48.722;9.316;2023-07-24T10:57:00;97348.91;;;19.69;100.00
2785;BME280;57944;48.722;9.316;2023-07-24T10:59:38;97360.06;;;19.59;100.00
2785;BME280;57944;48.722;9.316;2023-07-24T11:02:08;97353.41;;;19.42;100.00
2785;BME280;57944;48.722;9.316;2023-07-24T11:04:43;97355.69;;;19.44;100.00
2785;BME280;57944;48.722;9.316;2023-07-24T11:07:14;97360.91;;;19.39;100.00
2785;BME280;57944;48.722;9.316;2023-07-24T11:09:44;97349.25;;;19.41;100.00
2785;BME280;57944;48.722;9.316;2023-07-24T11:12:16;97346.44;;;19.33;100.00
2785;BME280;57944;48.722;9.316;2023-07-24T11:14:51;97333.81;;;19.31;100.00
2785;BME280;57944;48.722;9.316;2023-07-24T11:17:22;97295.91;;;19.11;100.00
2785;BME280;57944;48.722;9.316;2023-07-24T11:20:06;97310.63;;;19.06;100.00
2785;BME280;57944;48.722;9.316;2023-07-24T11:22:39;97307.25;;;19.05;100.00
2785;BME280;57944;48.722;9.316;2023-07-24T11:25:11;97294.63;;;19.04;100.00
2785;BME280;57944;48.722;9.316;2023-07-24T11:27:43;97301.31;;;19.05;100.00
2785;BME280;57944;48.722;9.316;2023-07-24T11:30:20;97295.16;;;19.01;100.00
2785;BME280;57944;48.722;9.316;2023-07-24T11:32:51;97255.34;;;19.12;100.00
2785;BME280;57944;48.722;9.316;2023-07-24T11:35:25;97226.84;;;19.27;100.00
2785;BME280;57944;48.722;9.316;2023-07-24T11:37:56;97205.16;;;19.28;100.00
2785;BME280;57944;48.722;9.316;2023-07-24T11:40:35;97167.72;;;19.26;100.00
2785;BME280;57944;48.722;9.316;2023-07-24T11:43:15;97157.22;;;19.46;100.00
2785;BME280;57944;48.722;9.316;2023-07-24T11:45:47;97137.06;;;19.82;100.00
2785;BME280;57944;48.722;9.316;2023-07-24T11:48:21;97146.69;;;20.59;100.00
2785;BME280;57944;48.722;9.316;2023-07-24T11:50:57;97190.19;;;21.43;100.00
2785;BME280;57944;48.722;9.316;2023-07-24T11:53:30;97182.59;;;22.45;100.00
2785;BME280;57944;48.722;9.316;2023-07-24T11:56:01;97184.31;;;22.36;100.00
2785;BME280;57944;48.722;9.316;2023-07-24T11:58:32;97188.84;;;22.58;100.00
2785;BME280;57944;48.722;9.316;2023-07-24T12:01:03;97195.09;;;22.57;100.00
2785;BME280;57944;48.722;9.316;2023-07-24T12:03:33;97193.19;;;22.48;100.00
2785;BME280;57944;48.722;9.316;2023-07-24T12:06:14;97185.75;;;21.95;100.00
2785;BME280;57944;48.722;9.316;2023-07-24T12:08:47;97200.13;;;21.55;100.00
2785;BME280;57944;48.722;9.316;2023-07-24T12:11:18;97188.06;;;21.45;100.00
2785;BME280;57944;48.722;9.316;2023-07-24T12:13:48;97184.84;;;21.53;100.00
2785;BME280;57944;48.722;9.316;2023-07-24T12:16:21;97194.63;;;22.08;100.00
2785;BME280;57944;48.722;9.316;2023-07-24T12:18:51;97186.31;;;23.08;100.00
2785;BME280;57944;48.722;9.316;2023-07-24T12:21:24;97199.88;;;23.77;100.00
2785;BME280;57944;48.722;9.316;2023-07-24T12:23:55;97213.69;;;24.09;100.00
2785;BME280;57944;48.722;9.316;2023-07-24T12:26:25;97213.56;;;24.45;100.00
2785;BME280;57944;48.722;9.316;2023-07-24T12:28:55;97207.94;;;25.27;100.00
2785;BME280;57944;48.722;9.316;2023-07-24T12:31:28;97206.06;;;26.44;100.00
2785;BME280;57944;48.722;9.316;2023-07-24T12:33:59;97203.44;;;26.61;100.00
2785;BME280;57944;48.722;9.316;2023-07-24T12:36:31;97201.66;;;26.74;100.00
2785;BME280;57944;48.722;9.316;2023-07-24T12:39:02;97194.13;;;27.44;96.50
2785;BME280;57944;48.722;9.316;2023-07-24T12:41:32;97190.03;;;26.92;95.09
2785;BME280;57944;48.722;9.316;2023-07-24T12:44:03;97191.19;;;26.44;100.00
2785;BME280;57944;48.722;9.316;2023-07-24T12:46:33;97192.31;;;26.26;100.00
2785;BME280;57944;48.722;9.316;2023-07-24T12:49:04;97179.78;;;26.11;100.00
2785;BME280;57944;48.722;9.316;2023-07-24T12:51:37;97172.25;;;26.47;100.00
2785;BME280;57944;48.722;9.316;2023-07-24T12:54:07;97188.44;;;26.32;97.79
2785;BME280;57944;48.722;9.316;2023-07-24T12:56:56;97166.25;;;27.27;96.56
2785;BME280;57944;48.722;9.316;2023-07-24T12:59:27;97162.56;;;27.28;92.89
2785;BME280;57944;48.722;9.316;2023-07-24T13:01:57;97152.84;;;27.50;92.19
2785;BME280;57944;48.722;9.316;2023-07-24T13:04:28;97150.63;;;27.18;89.95
2785;BME280;57944;48.722;9.316;2023-07-24T13:07:00;97143.44;;;26.65;86.59
2785;BME280;57944;48.722;9.316;2023-07-24T13:09:32;97143.69;;;26.04;91.72
2785;BME280;57944;48.722;9.316;2023-07-24T13:12:02;97147.22;;;26.08;94.56
2785;BME280;57944;48.722;9.316;2023-07-24T13:14:33;97147.31;;;26.59;87.07
2785;BME280;57944;48.722;9.316;2023-07-24T13:17:06;97144.22;;;26.86;86.72
2785;BME280;57944;48.722;9.316;2023-07-24T13:19:36;97147.47;;;26.83;84.70
2785;BME280;57944;48.722;9.316;2023-07-24T13:22:09;97154.38;;;27.09;84.94
2785;BME280;57944;48.722;9.316;2023-07-24T13:24:39;97154.50;;;27.33;80.08
2785;BME280;57944;48.722;9.316;2023-07-24T13:27:09;97137.22;;;27.99;81.74